sensor_id;sensor_type;location;lat;lon;timestamp;temperature;humidity
20610;DHT22;10463;52.378;9.688;2023-06-22T00:00:09;34.60;25.90
20610;DHT22;10463;52.378;9.688;2023-06-22T00:02:56;34.60;25.90
20610;DHT22;10463;52.378;9.688;2023-06-22T00:05:41;34.60;25.90
20610;DHT22;10463;52.378;9.688;2023-06-22T00:08:25;34.60;25.90
20610;DHT22;10463;52.378;9.688;2023-06-22T00:11:12;34.60;25.90
20610;DHT22;10463;52.378;9.688;2023-06-22T00:13:57;34.60;25.90
20610;DHT22;10463;52.378;9.688;2023-06-22T00:16:41;34.60;25.90
20610;DHT22;10463;52.378;9.688;2023-06-22T00:19:27;34.60;25.90
20610;DHT22;10463;52.378;9.688;2023-06-22T00:22:11;34.60;25.90
20610;DHT22;10463;52.378;9.688;2023-06-22T00:24:56;34.60;25.90
20610;DHT22;10463;52.378;9.688;2023-06-22T00:27:42;34.60;25.90
20610;DHT22;10463;52.378;9.688;2023-06-22T00:30:26;34.60;25.90
20610;DHT22;10463;52.378;9.688;2023-06-22T00:33:11;34.60;25.90
20610;DHT22;10463;52.378;9.688;2023-06-22T00:35:59;34.60;25.90
20610;DHT22;10463;52.378;9.688;2023-06-22T00:38:44;34.60;25.90
20610;DHT22;10463;52.378;9.688;2023-06-22T00:41:29;34.60;25.90
20610;DHT22;10463;52.378;9.688;2023-06-22T00:44:14;34.60;25.90
20610;DHT22;10463;52.378;9.688;2023-06-22T00:46:59;34.50;25.80
20610;DHT22;10463;52.378;9.688;2023-06-22T00:49:47;34.50;25.90
20610;DHT22;10463;52.378;9.688;2023-06-22T00:52:33;34.50;25.80
20610;DHT22;10463;52.378;9.688;2023-06-22T00:55:21;34.50;25.80
20610;DHT22;10463;52.378;9.688;2023-06-22T00:58:06;34.50;25.90
20610;DHT22;10463;52.378;9.688;2023-06-22T01:00:56;34.50;25.80
20610;DHT22;10463;52.378;9.688;2023-06-22T01:03:41;34.50;25.80
20610;DHT22;10463;52.378;9.688;2023-06-22T01:06:34;34.50;26.30
20610;DHT22;10463;52.378;9.688;2023-06-22T01:09:38;34.50;25.80
20610;DHT22;10463;52.378;9.688;2023-06-22T01:12:26;34.50;25.80
20610;DHT22;10463;52.378;9.688;2023-06-22T01:15:21;34.50;25.80
20610;DHT22;10463;52.378;9.688;2023-06-22T01:18:09;34.50;25.80
20610;DHT22;10463;52.378;9.688;2023-06-22T01:20:55;34.50;25.80
20610;DHT22;10463;52.378;9.688;2023-06-22T01:23:55;34.50;25.80
20610;DHT22;10463;52.378;9.688;2023-06-22T01:26:56;34.50;25.80
20610;DHT22;10463;52.378;9.688;2023-06-22T01:29:43;34.50;25.80
20610;DHT22;10463;52.378;9.688;2023-06-22T01:32:31;34.40;25.70
20610;DHT22;10463;52.378;9.688;2023-06-22T01:35:17;34.40;25.70
20610;DHT22;10463;52.378;9.688;2023-06-22T01:38:03;34.40;25.70
20610;DHT22;10463;52.378;9.688;2023-06-22T01:40:49;34.40;25.60
20610;DHT22;10463;52.378;9.688;2023-06-22T01:43:36;34.40;25.70
20610;DHT22;10463;52.378;9.688;2023-06-22T01:46:22;34.40;25.60
20610;DHT22;10463;52.378;9.688;2023-06-22T01:49:08;34.40;25.70
20610;DHT22;10463;52.378;9.688;2023-06-22T01:51:54;34.40;25.70
20610;DHT22;10463;52.378;9.688;2023-06-22T01:54:40;34.40;25.70
20610;DHT22;10463;52.378;9.688;2023-06-22T01:57:24;34.40;25.60
20610;DHT22;10463;52.378;9.688;2023-06-22T02:00:13;34.40;25.60
20610;DHT22;10463;52.378;9.688;2023-06-22T02:03:10;34.40;25.60
20610;DHT22;10463;52.378;9.688;2023-06-22T02:06:03;34.40;25.60
20610;DHT22;10463;52.378;9.688;2023-06-22T02:09:00;34.40;25.60
20610;DHT22;10463;52.378;9.688;2023-06-22T02:11:47;34.40;25.60
20610;DHT22;10463;52.378;9.688;2023-06-22T02:14:34;34.30;25.60
20610;DHT22;10463;52.378;9.688;2023-06-22T02:17:20;34.30;25.60
20610;DHT22;10463;52.378;9.688;2023-06-22T02:20:12;34.30;25.60
20610;DHT22;10463;52.378;9.688;2023-06-22T02:22:58;34.30;25.60
20610;DHT22;10463;52.378;9.688;2023-06-22T02:25:42;34.30;25.60
20610;DHT22;10463;52.378;9.688;2023-06-22T02:28:28;34.30;25.60
20610;DHT22;10463;52.378;9.688;2023-06-22T02:31:13;34.30;25.60
20610;DHT22;10463;52.378;9.688;2023-06-22T02:33:58;34.20;25.50
20610;DHT22;10463;52.378;9.688;2023-06-22T02:36:45;34.20;25.60
20610;DHT22;10463;52.378;9.688;2023-06-22T02:39:35;34.20;25.50
20610;DHT22;10463;52.378;9.688;2023-06-22T02:42:20;34.20;25.60
20610;DHT22;10463;52.378;9.688;2023-06-22T02:45:07;34.20;25.60
20610;DHT22;10463;52.378;9.688;2023-06-22T02:47:52;34.20;25.60
20610;DHT22;10463;52.378;9.688;2023-06-22T02:50:37;34.20;25.60
20610;DHT22;10463;52.378;9.688;2023-06-22T02:53:24;34.20;25.60
20610;DHT22;10463;52.378;9.688;2023-06-22T02:56:08;34.20;25.60
20610;DHT22;10463;52.378;9.688;2023-06-22T02:58:56;34.20;25.60
20610;DHT22;10463;52.378;9.688;2023-06-22T03:01:47;34.20;25.60
20610;DHT22;10463;52.378;9.688;2023-06-22T03:04:38;34.10;25.50
20610;DHT22;10463;52.378;9.688;2023-06-22T03:07:23;34.20;25.60
20610;DHT22;10463;52.378;9.688;2023-06-22T03:10:12;34.10;25.50
20610;DHT22;10463;52.378;9.688;2023-06-22T03:12:57;34.10;25.50
20610;DHT22;10463;52.378;9.688;2023-06-22T03:15:42;34.10;25.50
20610;DHT22;10463;52.378;9.688;2023-06-22T03:18:27;34.10;25.50
20610;DHT22;10463;52.378;9.688;2023-06-22T03:21:11;34.10;25.60
20610;DHT22;10463;52.378;9.688;2023-06-22T03:23:56;34.10;25.50
20610;DHT22;10463;52.378;9.688;2023-06-22T03:26:42;34.10;25.50
20610;DHT22;10463;52.378;9.688;2023-06-22T03:29:30;34.10;25.60
20610;DHT22;10463;52.378;9.688;2023-06-22T03:32:16;34.10;25.50
20610;DHT22;10463;52.378;9.688;2023-06-22T03:35:00;34.10;25.60
20610;DHT22;10463;52.378;9.688;2023-06-22T03:37:45;34.10;25.60
20610;DHT22;10463;52.378;9.688;2023-06-22T03:40:30;34.10;25.60
20610;DHT22;10463;52.378;9.688;2023-06-22T03:43:15;34.10;25.60
20610;DHT22;10463;52.378;9.688;2023-06-22T03:46:00;34.00;25.60
20610;DHT22;10463;52.378;9.688;2023-06-22T03:48:45;34.00;25.60
20610;DHT22;10463;52.378;9.688;2023-06-22T03:51:30;34.00;25.60
20610;DHT22;10463;52.378;9.688;2023-06-22T03:54:15;34.00;25.60
20610;DHT22;10463;52.378;9.688;2023-06-22T03:57:00;34.00;25.60
20610;DHT22;10463;52.378;9.688;2023-06-22T03:59:46;34.00;25.60
20610;DHT22;10463;52.378;9.688;2023-06-22T04:02:31;34.00;25.60
20610;DHT22;10463;52.378;9.688;2023-06-22T04:05:16;34.00;25.60
20610;DHT22;10463;52.378;9.688;2023-06-22T04:08:04;34.00;25.60
20610;DHT22;10463;52.378;9.688;2023-06-22T04:10:48;34.00;25.60
20610;DHT22;10463;52.378;9.688;2023-06-22T04:13:33;34.00;25.60
20610;DHT22;10463;52.378;9.688;2023-06-22T04:16:19;33.90;25.50
20610;DHT22;10463;52.378;9.688;2023-06-22T04:19:04;33.90;25.60
20610;DHT22;10463;52.378;9.688;2023-06-22T04:21:49;33.90;25.60
20610;DHT22;10463;52.378;9.688;2023-06-22T04:24:33;33.90;25.60
20610;DHT22;10463;52.378;9.688;2023-06-22T04:27:18;33.90;25.60
20610;DHT22;10463;52.378;9.688;2023-06-22T04:30:06;33.90;25.60
20610;DHT22;10463;52.378;9.688;2023-06-22T04:32:52;33.90;25.60
20610;DHT22;10463;52.378;9.688;2023-06-22T04:35:45;33.90;25.60
20610;DHT22;10463;52.378;9.688;2023-06-22T04:38:30;33.90;25.70
20610;DHT22;10463;52.378;9.688;2023-06-22T04:41:18;33.90;26.10
20610;DHT22;10463;52.378;9.688;2023-06-22T04:44:09;33.90;25.70
20610;DHT22;10463;52.378;9.688;2023-06-22T04:46:57;33.90;25.60
20610;DHT22;10463;52.378;9.688;2023-06-22T04:49:47;33.90;25.60
20610;DHT22;10463;52.378;9.688;2023-06-22T04:52:32;33.90;25.60
20610;DHT22;10463;52.378;9.688;2023-06-22T04:55:17;33.90;25.70
20610;DHT22;10463;52.378;9.688;2023-06-22T04:58:05;33.90;25.70
20610;DHT22;10463;52.378;9.688;2023-06-22T05:00:49;33.90;25.70
20610;DHT22;10463;52.378;9.688;2023-06-22T05:03:36;33.90;25.70
20610;DHT22;10463;52.378;9.688;2023-06-22T05:06:23;33.90;25.70
20610;DHT22;10463;52.378;9.688;2023-06-22T05:09:10;33.90;25.70
20610;DHT22;10463;52.378;9.688;2023-06-22T05:11:56;33.90;25.70
20610;DHT22;10463;52.378;9.688;2023-06-22T05:14:41;33.90;25.70
20610;DHT22;10463;52.378;9.688;2023-06-22T05:17:26;33.80;25.60
20610;DHT22;10463;52.378;9.688;2023-06-22T05:20:12;33.90;25.70
20610;DHT22;10463;52.378;9.688;2023-06-22T05:22:58;33.80;25.60
20610;DHT22;10463;52.378;9.688;2023-06-22T05:25:43;33.80;25.60
20610;DHT22;10463;52.378;9.688;2023-06-22T05:28:28;33.80;25.60
20610;DHT22;10463;52.378;9.688;2023-06-22T05:31:14;33.80;25.60
20610;DHT22;10463;52.378;9.688;2023-06-22T05:33:59;33.80;25.60
20610;DHT22;10463;52.378;9.688;2023-06-22T05:36:44;33.80;25.60
20610;DHT22;10463;52.378;9.688;2023-06-22T05:39:30;33.80;25.60
20610;DHT22;10463;52.378;9.688;2023-06-22T05:42:15;33.80;25.60
20610;DHT22;10463;52.378;9.688;2023-06-22T05:44:59;33.80;25.60
20610;DHT22;10463;52.378;9.688;2023-06-22T05:47:44;33.80;25.60
20610;DHT22;10463;52.378;9.688;2023-06-22T05:50:29;33.80;25.60
20610;DHT22;10463;52.378;9.688;2023-06-22T05:53:14;33.80;25.60
20610;DHT22;10463;52.378;9.688;2023-06-22T05:56:00;33.80;25.60
20610;DHT22;10463;52.378;9.688;2023-06-22T05:58:46;33.80;25.70
20610;DHT22;10463;52.378;9.688;2023-06-22T06:01:31;33.80;25.70
20610;DHT22;10463;52.378;9.688;2023-06-22T06:04:19;33.80;25.70
20610;DHT22;10463;52.378;9.688;2023-06-22T06:07:04;33.80;25.70
20610;DHT22;10463;52.378;9.688;2023-06-22T06:09:49;33.80;25.70
20610;DHT22;10463;52.378;9.688;2023-06-22T06:12:35;33.80;25.70
20610;DHT22;10463;52.378;9.688;2023-06-22T06:15:20;33.80;25.70
20610;DHT22;10463;52.378;9.688;2023-06-22T06:18:05;33.80;25.70
20610;DHT22;10463;52.378;9.688;2023-06-22T06:20:51;33.80;25.70
20610;DHT22;10463;52.378;9.688;2023-06-22T06:23:35;33.80;25.70
20610;DHT22;10463;52.378;9.688;2023-06-22T06:26:20;33.80;25.70
20610;DHT22;10463;52.378;9.688;2023-06-22T06:29:13;33.80;25.70
20610;DHT22;10463;52.378;9.688;2023-06-22T06:32:01;33.80;25.70
20610;DHT22;10463;52.378;9.688;2023-06-22T06:34:46;33.80;25.70
20610;DHT22;10463;52.378;9.688;2023-06-22T06:37:31;33.80;25.70
20610;DHT22;10463;52.378;9.688;2023-06-22T06:40:17;33.80;25.70
20610;DHT22;10463;52.378;9.688;2023-06-22T06:43:02;33.80;25.70
20610;DHT22;10463;52.378;9.688;2023-06-22T06:45:48;33.70;25.60
20610;DHT22;10463;52.378;9.688;2023-06-22T06:48:33;33.70;25.60
20610;DHT22;10463;52.378;9.688;2023-06-22T06:51:17;33.70;25.60
20610;DHT22;10463;52.378;9.688;2023-06-22T06:54:03;33.80;25.70
20610;DHT22;10463;52.378;9.688;2023-06-22T06:56:48;33.70;25.60
20610;DHT22;10463;52.378;9.688;2023-06-22T06:59:33;33.70;25.60
20610;DHT22;10463;52.378;9.688;2023-06-22T07:02:18;33.70;25.60
20610;DHT22;10463;52.378;9.688;2023-06-22T07:05:05;33.70;25.70
20610;DHT22;10463;52.378;9.688;2023-06-22T07:07:50;33.70;25.60
20610;DHT22;10463;52.378;9.688;2023-06-22T07:13:30;33.70;25.70
20610;DHT22;10463;52.378;9.688;2023-06-22T07:16:15;33.70;25.70
20610;DHT22;10463;52.378;9.688;2023-06-22T07:19:01;33.70;25.70
20610;DHT22;10463;52.378;9.688;2023-06-22T07:21:45;33.70;25.70
20610;DHT22;10463;52.378;9.688;2023-06-22T07:24:30;33.70;25.70
20610;DHT22;10463;52.378;9.688;2023-06-22T07:27:15;33.70;25.70
20610;DHT22;10463;52.378;9.688;2023-06-22T07:30:06;33.70;25.70
20610;DHT22;10463;52.378;9.688;2023-06-22T07:32:50;33.70;25.70
20610;DHT22;10463;52.378;9.688;2023-06-22T07:35:36;33.70;25.70
20610;DHT22;10463;52.378;9.688;2023-06-22T07:38:21;33.70;25.70
20610;DHT22;10463;52.378;9.688;2023-06-22T07:41:06;33.70;25.70
20610;DHT22;10463;52.378;9.688;2023-06-22T07:43:51;33.70;25.70
20610;DHT22;10463;52.378;9.688;2023-06-22T07:46:36;33.70;26.30
20610;DHT22;10463;52.378;9.688;2023-06-22T07:49:21;33.70;25.70
20610;DHT22;10463;52.378;9.688;2023-06-22T07:52:07;33.70;25.70
20610;DHT22;10463;52.378;9.688;2023-06-22T07:54:52;33.70;25.70
20610;DHT22;10463;52.378;9.688;2023-06-22T07:57:37;33.70;25.70
20610;DHT22;10463;52.378;9.688;2023-06-22T08:00:22;33.70;25.70
20610;DHT22;10463;52.378;9.688;2023-06-22T08:03:08;33.70;25.70
20610;DHT22;10463;52.378;9.688;2023-06-22T08:05:52;33.70;25.70
20610;DHT22;10463;52.378;9.688;2023-06-22T08:08:38;33.70;25.70
20610;DHT22;10463;52.378;9.688;2023-06-22T08:11:23;33.70;25.70
20610;DHT22;10463;52.378;9.688;2023-06-22T08:14:09;33.70;25.70
20610;DHT22;10463;52.378;9.688;2023-06-22T08:16:55;33.70;25.70
20610;DHT22;10463;52.378;9.688;2023-06-22T08:19:40;33.70;25.80
20610;DHT22;10463;52.378;9.688;2023-06-22T08:22:25;33.70;25.80
20610;DHT22;10463;52.378;9.688;2023-06-22T08:25:11;33.70;25.80
20610;DHT22;10463;52.378;9.688;2023-06-22T08:27:57;33.70;25.80
20610;DHT22;10463;52.378;9.688;2023-06-22T08:30:42;33.70;25.80
20610;DHT22;10463;52.378;9.688;2023-06-22T08:33:26;33.70;25.80
20610;DHT22;10463;52.378;9.688;2023-06-22T08:36:13;33.70;25.80
20610;DHT22;10463;52.378;9.688;2023-06-22T08:38:58;33.70;25.80
20610;DHT22;10463;52.378;9.688;2023-06-22T08:41:47;33.80;25.80
20610;DHT22;10463;52.378;9.688;2023-06-22T08:44:32;33.70;25.80
20610;DHT22;10463;52.378;9.688;2023-06-22T08:47:16;33.80;25.80
20610;DHT22;10463;52.378;9.688;2023-06-22T08:50:01;33.80;25.80
20610;DHT22;10463;52.378;9.688;2023-06-22T08:52:49;33.80;25.80
20610;DHT22;10463;52.378;9.688;2023-06-22T08:55:34;33.80;25.90
20610;DHT22;10463;52.378;9.688;2023-06-22T08:58:20;33.80;25.90
20610;DHT22;10463;52.378;9.688;2023-06-22T09:01:05;33.80;25.90
20610;DHT22;10463;52.378;9.688;2023-06-22T09:03:50;33.80;25.90
20610;DHT22;10463;52.378;9.688;2023-06-22T09:06:40;33.80;25.90
20610;DHT22;10463;52.378;9.688;2023-06-22T09:09:29;33.80;25.90
20610;DHT22;10463;52.378;9.688;2023-06-22T09:12:14;33.80;25.80
20610;DHT22;10463;52.378;9.688;2023-06-22T09:15:01;33.80;25.90
20610;DHT22;10463;52.378;9.688;2023-06-22T09:17:47;33.80;25.90
20610;DHT22;10463;52.378;9.688;2023-06-22T09:20:32;33.80;25.90
20610;DHT22;10463;52.378;9.688;2023-06-22T09:23:17;33.80;25.90
20610;DHT22;10463;52.378;9.688;2023-06-22T09:26:02;33.90;25.90
20610;DHT22;10463;52.378;9.688;2023-06-22T09:28:48;33.90;25.90
20610;DHT22;10463;52.378;9.688;2023-06-22T09:31:34;33.90;25.90
20610;DHT22;10463;52.378;9.688;2023-06-22T09:34:19;33.90;25.90
20610;DHT22;10463;52.378;9.688;2023-06-22T09:37:05;33.80;25.90
20610;DHT22;10463;52.378;9.688;2023-06-22T09:39:50;33.90;25.90
20610;DHT22;10463;52.378;9.688;2023-06-22T09:42:35;33.90;26.00
20610;DHT22;10463;52.378;9.688;2023-06-22T09:45:19;33.80;26.40
20610;DHT22;10463;52.378;9.688;2023-06-22T09:48:06;33.90;26.00
20610;DHT22;10463;52.378;9.688;2023-06-22T09:50:50;33.90;26.00
20610;DHT22;10463;52.378;9.688;2023-06-22T09:53:35;33.90;26.00
20610;DHT22;10463;52.378;9.688;2023-06-22T09:56:20;33.90;26.00
20610;DHT22;10463;52.378;9.688;2023-06-22T09:59:05;33.90;26.00
20610;DHT22;10463;52.378;9.688;2023-06-22T10:01:50;33.90;26.00
20610;DHT22;10463;52.378;9.688;2023-06-22T10:04:37;33.90;26.00
20610;DHT22;10463;52.378;9.688;2023-06-22T10:07:22;33.90;26.00
20610;DHT22;10463;52.378;9.688;2023-06-22T10:10:07;33.90;26.00
20610;DHT22;10463;52.378;9.688;2023-06-22T10:12:57;33.90;26.00
20610;DHT22;10463;52.378;9.688;2023-06-22T10:15:42;33.90;26.00
20610;DHT22;10463;52.378;9.688;2023-06-22T10:18:27;33.90;26.00
20610;DHT22;10463;52.378;9.688;2023-06-22T10:21:13;33.90;26.00
20610;DHT22;10463;52.378;9.688;2023-06-22T10:23:58;33.90;26.00
20610;DHT22;10463;52.378;9.688;2023-06-22T10:26:43;33.90;26.00
20610;DHT22;10463;52.378;9.688;2023-06-22T10:29:28;33.90;26.00
20610;DHT22;10463;52.378;9.688;2023-06-22T10:32:12;34.00;26.00
20610;DHT22;10463;52.378;9.688;2023-06-22T10:34:58;34.00;26.00
20610;DHT22;10463;52.378;9.688;2023-06-22T10:37:45;34.00;26.00
20610;DHT22;10463;52.378;9.688;2023-06-22T10:40:30;33.90;26.00
20610;DHT22;10463;52.378;9.688;2023-06-22T10:43:15;33.90;26.00
20610;DHT22;10463;52.378;9.688;2023-06-22T10:46:00;34.00;26.10
20610;DHT22;10463;52.378;9.688;2023-06-22T10:48:44;34.00;26.10
20610;DHT22;10463;52.378;9.688;2023-06-22T10:51:29;34.00;26.10
20610;DHT22;10463;52.378;9.688;2023-06-22T10:54:17;34.00;26.10
20610;DHT22;10463;52.378;9.688;2023-06-22T10:57:04;34.00;26.10
20610;DHT22;10463;52.378;9.688;2023-06-22T10:59:50;34.00;26.10
20610;DHT22;10463;52.378;9.688;2023-06-22T11:02:35;34.00;26.10
20610;DHT22;10463;52.378;9.688;2023-06-22T11:05:19;34.00;26.10
20610;DHT22;10463;52.378;9.688;2023-06-22T11:08:04;34.00;26.10
20610;DHT22;10463;52.378;9.688;2023-06-22T11:10:51;34.00;26.10
20610;DHT22;10463;52.378;9.688;2023-06-22T11:13:37;34.00;26.10
20610;DHT22;10463;52.378;9.688;2023-06-22T11:16:22;34.00;26.20
20610;DHT22;10463;52.378;9.688;2023-06-22T11:19:07;34.00;26.10
20610;DHT22;10463;52.378;9.688;2023-06-22T11:21:51;34.10;26.20
20610;DHT22;10463;52.378;9.688;2023-06-22T11:24:36;34.00;26.20
20610;DHT22;10463;52.378;9.688;2023-06-22T11:27:22;34.10;26.20
20610;DHT22;10463;52.378;9.688;2023-06-22T11:30:08;34.10;26.20
20610;DHT22;10463;52.378;9.688;2023-06-22T11:32:53;34.10;26.20
20610;DHT22;10463;52.378;9.688;2023-06-22T11:35:38;34.10;26.20
20610;DHT22;10463;52.378;9.688;2023-06-22T11:38:23;34.10;26.20
20610;DHT22;10463;52.378;9.688;2023-06-22T11:41:09;34.10;26.20
20610;DHT22;10463;52.378;9.688;2023-06-22T11:43:55;34.10;26.30
20610;DHT22;10463;52.378;9.688;2023-06-22T11:46:40;34.10;26.30
20610;DHT22;10463;52.378;9.688;2023-06-22T11:49:24;34.10;26.80
20610;DHT22;10463;52.378;9.688;2023-06-22T11:52:09;34.10;26.30
20610;DHT22;10463;52.378;9.688;2023-06-22T11:54:54;34.10;26.30
20610;DHT22;10463;52.378;9.688;2023-06-22T11:57:52;34.10;26.30
20610;DHT22;10463;52.378;9.688;2023-06-22T12:00:39;34.10;26.30
20610;DHT22;10463;52.378;9.688;2023-06-22T12:03:24;34.10;26.30
20610;DHT22;10463;52.378;9.688;2023-06-22T12:06:09;34.10;26.30
20610;DHT22;10463;52.378;9.688;2023-06-22T12:08:54;34.10;26.40
20610;DHT22;10463;52.378;9.688;2023-06-22T12:11:39;34.10;26.40
20610;DHT22;10463;52.378;9.688;2023-06-22T12:14:23;34.20;26.50
20610;DHT22;10463;52.378;9.688;2023-06-22T12:17:09;34.10;26.40
20610;DHT22;10463;52.378;9.688;2023-06-22T12:19:54;34.20;26.40
20610;DHT22;10463;52.378;9.688;2023-06-22T12:22:39;34.20;26.50
20610;DHT22;10463;52.378;9.688;2023-06-22T12:25:24;34.20;26.40
20610;DHT22;10463;52.378;9.688;2023-06-22T12:28:09;34.20;26.50
20610;DHT22;10463;52.378;9.688;2023-06-22T12:30:54;34.20;26.40
20610;DHT22;10463;52.378;9.688;2023-06-22T12:33:40;34.20;26.50
20610;DHT22;10463;52.378;9.688;2023-06-22T12:36:24;34.20;26.50
20610;DHT22;10463;52.378;9.688;2023-06-22T12:39:09;34.20;26.50
20610;DHT22;10463;52.378;9.688;2023-06-22T12:41:53;34.30;26.50
20610;DHT22;10463;52.378;9.688;2023-06-22T12:44:39;34.30;26.50
20610;DHT22;10463;52.378;9.688;2023-06-22T12:47:26;34.30;26.50
20610;DHT22;10463;52.378;9.688;2023-06-22T12:50:12;34.30;26.50
20610;DHT22;10463;52.378;9.688;2023-06-22T12:52:57;34.30;26.50
20610;DHT22;10463;52.378;9.688;2023-06-22T12:55:42;34.30;26.50
20610;DHT22;10463;52.378;9.688;2023-06-22T12:58:27;34.30;26.50
20610;DHT22;10463;52.378;9.688;2023-06-22T13:01:12;34.30;26.50
20610;DHT22;10463;52.378;9.688;2023-06-22T13:03:57;34.30;26.50
20610;DHT22;10463;52.378;9.688;2023-06-22T13:06:45;34.30;26.50
20610;DHT22;10463;52.378;9.688;2023-06-22T13:09:31;34.40;26.60
20610;DHT22;10463;52.378;9.688;2023-06-22T13:12:16;34.40;26.60
20610;DHT22;10463;52.378;9.688;2023-06-22T13:15:01;34.40;26.60
20610;DHT22;10463;52.378;9.688;2023-06-22T13:17:47;34.40;26.60
20610;DHT22;10463;52.378;9.688;2023-06-22T13:20:32;34.30;26.50
20610;DHT22;10463;52.378;9.688;2023-06-22T13:23:18;34.30;26.50
20610;DHT22;10463;52.378;9.688;2023-06-22T13:26:02;34.30;26.50
20610;DHT22;10463;52.378;9.688;2023-06-22T13:28:47;34.40;26.60
20610;DHT22;10463;52.378;9.688;2023-06-22T13:31:32;34.40;26.60
20610;DHT22;10463;52.378;9.688;2023-06-22T13:34:16;34.40;26.60
20610;DHT22;10463;52.378;9.688;2023-06-22T13:37:01;34.40;26.60
20610;DHT22;10463;52.378;9.688;2023-06-22T13:39:47;34.40;26.60
20610;DHT22;10463;52.378;9.688;2023-06-22T13:42:31;34.40;26.60
20610;DHT22;10463;52.378;9.688;2023-06-22T13:45:17;34.40;26.60
20610;DHT22;10463;52.378;9.688;2023-06-22T13:48:04;34.40;26.70
20610;DHT22;10463;52.378;9.688;2023-06-22T13:50:49;34.40;26.60
20610;DHT22;10463;52.378;9.688;2023-06-22T13:53:34;34.40;26.70
20610;DHT22;10463;52.378;9.688;2023-06-22T13:56:20;34.40;26.70
20610;DHT22;10463;52.378;9.688;2023-06-22T13:59:05;34.40;26.70
20610;DHT22;10463;52.378;9.688;2023-06-22T14:01:51;34.40;26.70
20610;DHT22;10463;52.378;9.688;2023-06-22T14:04:36;34.40;26.70
20610;DHT22;10463;52.378;9.688;2023-06-22T14:07:21;34.40;26.70
20610;DHT22;10463;52.378;9.688;2023-06-22T14:10:07;34.40;26.70
20610;DHT22;10463;52.378;9.688;2023-06-22T14:12:53;34.50;26.80
20610;DHT22;10463;52.378;9.688;2023-06-22T14:15:38;34.40;26.70
20610;DHT22;10463;52.378;9.688;2023-06-22T14:18:23;34.50;26.80
20610;DHT22;10463;52.378;9.688;2023-06-22T14:21:07;34.50;26.90
20610;DHT22;10463;52.378;9.688;2023-06-22T14:23:52;34.50;27.40
20610;DHT22;10463;52.378;9.688;2023-06-22T14:26:37;34.50;26.90
20610;DHT22;10463;52.378;9.688;2023-06-22T14:29:23;34.50;26.90
20610;DHT22;10463;52.378;9.688;2023-06-22T14:32:09;34.50;26.90
20610;DHT22;10463;52.378;9.688;2023-06-22T14:34:54;34.50;26.90
20610;DHT22;10463;52.378;9.688;2023-06-22T14:37:38;34.50;27.00
20610;DHT22;10463;52.378;9.688;2023-06-22T14:40:23;34.50;27.00
20610;DHT22;10463;52.378;9.688;2023-06-22T14:43:07;34.50;27.00
20610;DHT22;10463;52.378;9.688;2023-06-22T14:45:54;34.50;27.10
20610;DHT22;10463;52.378;9.688;2023-06-22T14:48:38;34.50;27.10
20610;DHT22;10463;52.378;9.688;2023-06-22T14:51:23;34.50;27.10
20610;DHT22;10463;52.378;9.688;2023-06-22T14:54:08;34.50;27.10
20610;DHT22;10463;52.378;9.688;2023-06-22T14:56:53;34.50;27.20
20610;DHT22;10463;52.378;9.688;2023-06-22T14:59:37;34.50;27.30
20610;DHT22;10463;52.378;9.688;2023-06-22T15:02:23;34.50;27.30
20610;DHT22;10463;52.378;9.688;2023-06-22T15:05:08;34.50;27.30
20610;DHT22;10463;52.378;9.688;2023-06-22T15:07:53;34.50;27.30
20610;DHT22;10463;52.378;9.688;2023-06-22T15:10:38;34.50;27.30
20610;DHT22;10463;52.378;9.688;2023-06-22T15:13:22;34.50;27.30
20610;DHT22;10463;52.378;9.688;2023-06-22T15:16:07;34.50;27.90
20610;DHT22;10463;52.378;9.688;2023-06-22T15:18:53;34.50;27.30
20610;DHT22;10463;52.378;9.688;2023-06-22T15:21:38;34.50;27.30
20610;DHT22;10463;52.378;9.688;2023-06-22T15:24:23;34.50;27.30
20610;DHT22;10463;52.378;9.688;2023-06-22T15:27:07;34.50;27.30
20610;DHT22;10463;52.378;9.688;2023-06-22T15:29:52;34.50;27.30
20610;DHT22;10463;52.378;9.688;2023-06-22T15:32:37;34.50;27.30
20610;DHT22;10463;52.378;9.688;2023-06-22T15:35:22;34.50;27.90
20610;DHT22;10463;52.378;9.688;2023-06-22T15:38:08;34.50;27.30
20610;DHT22;10463;52.378;9.688;2023-06-22T15:40:52;34.50;27.30
20610;DHT22;10463;52.378;9.688;2023-06-22T15:43:37;34.50;27.30
20610;DHT22;10463;52.378;9.688;2023-06-22T15:46:22;34.50;27.40
20610;DHT22;10463;52.378;9.688;2023-06-22T15:49:06;34.50;27.40
20610;DHT22;10463;52.378;9.688;2023-06-22T15:51:52;34.50;27.50
20610;DHT22;10463;52.378;9.688;2023-06-22T15:54:37;34.50;27.50
20610;DHT22;10463;52.378;9.688;2023-06-22T15:57:21;34.50;27.60
20610;DHT22;10463;52.378;9.688;2023-06-22T16:00:08;34.50;27.60
20610;DHT22;10463;52.378;9.688;2023-06-22T16:02:58;34.50;27.70
20610;DHT22;10463;52.378;9.688;2023-06-22T16:05:43;34.50;27.70
20610;DHT22;10463;52.378;9.688;2023-06-22T16:08:29;34.50;27.70
20610;DHT22;10463;52.378;9.688;2023-06-22T16:11:15;34.50;27.70
20610;DHT22;10463;52.378;9.688;2023-06-22T16:14:00;34.50;28.30
20610;DHT22;10463;52.378;9.688;2023-06-22T16:16:44;34.50;27.90
20610;DHT22;10463;52.378;9.688;2023-06-22T16:19:29;34.50;27.90
20610;DHT22;10463;52.378;9.688;2023-06-22T16:22:14;34.50;27.90
20610;DHT22;10463;52.378;9.688;2023-06-22T16:25:00;34.50;27.90
20610;DHT22;10463;52.378;9.688;2023-06-22T16:27:45;34.50;27.90
20610;DHT22;10463;52.378;9.688;2023-06-22T16:30:30;34.50;27.90
20610;DHT22;10463;52.378;9.688;2023-06-22T16:33:15;34.50;28.00
20610;DHT22;10463;52.378;9.688;2023-06-22T16:36:01;34.50;28.00
20610;DHT22;10463;52.378;9.688;2023-06-22T16:38:45;34.50;28.00
20610;DHT22;10463;52.378;9.688;2023-06-22T16:41:31;34.50;28.10
20610;DHT22;10463;52.378;9.688;2023-06-22T16:44:16;34.50;28.60
20610;DHT22;10463;52.378;9.688;2023-06-22T16:47:01;34.50;28.20
20610;DHT22;10463;52.378;9.688;2023-06-22T16:49:46;34.50;28.10
20610;DHT22;10463;52.378;9.688;2023-06-22T16:52:31;34.50;28.70
20610;DHT22;10463;52.378;9.688;2023-06-22T16:55:16;34.50;28.20
20610;DHT22;10463;52.378;9.688;2023-06-22T16:58:03;34.50;28.30
20610;DHT22;10463;52.378;9.688;2023-06-22T17:00:50;34.50;28.30
20610;DHT22;10463;52.378;9.688;2023-06-22T17:03:47;34.50;28.30
20610;DHT22;10463;52.378;9.688;2023-06-22T17:06:34;34.50;28.30
20610;DHT22;10463;52.378;9.688;2023-06-22T17:09:19;34.50;28.30
20610;DHT22;10463;52.378;9.688;2023-06-22T17:12:07;34.50;28.30
20610;DHT22;10463;52.378;9.688;2023-06-22T17:14:54;34.40;28.20
20610;DHT22;10463;52.378;9.688;2023-06-22T17:17:41;34.40;28.20
20610;DHT22;10463;52.378;9.688;2023-06-22T17:20:27;34.40;28.20
20610;DHT22;10463;52.378;9.688;2023-06-22T17:23:13;34.40;28.20
20610;DHT22;10463;52.378;9.688;2023-06-22T17:25:59;34.40;28.20
20610;DHT22;10463;52.378;9.688;2023-06-22T17:28:49;34.40;28.20